Time;durP1;ratioP1;P1;durP2;ratioP2;P2;SDS_P1;SDS_P2;PMS_P1;PMS_P2;Temp;Humidity;BMP_temperature;BMP_pressure;BME280_temperature;BME280_humidity;BME280_pressure;Samples;Min_cycle;Max_cycle;Signal;HPM_P1;HPM_P2
2024/03/13 00:01:44;;;;;;;4.47;3.57;;;;;;;6.30;93.17;95420.81;5059758;28;20645;-76
2024/03/13 00:04:10;;;;;;;5.03;3.20;;;;;;;6.36;92.38;95409.19;5088097;28;20198;-77
2024/03/13 00:06:36;;;;;;;6.03;3.60;;;;;;;6.26;93.01;95409.09;5075656;28;20732;-76
2024/03/13 00:09:03;;;;;;;3.87;2.87;;;;;;;6.15;94.18;95402.25;5077313;28;20188;-76
2024/03/13 00:11:29;;;;;;;4.57;2.97;;;;;;;6.29;93.57;95390.81;5093787;28;20221;-76
2024/03/13 00:13:55;;;;;;;3.53;2.93;;;;;;;6.28;93.55;95388.38;5059303;28;20680;-76
2024/03/13 00:16:21;;;;;;;2.97;2.67;;;;;;;6.35;93.15;95382.56;5072254;28;20832;-76
2024/03/13 00:18:46;;;;;;;3.20;2.90;;;;;;;6.24;93.49;95375.72;5094633;28;20238;-76
2024/03/13 00:21:12;;;;;;;3.60;2.70;;;;;;;6.22;93.82;95381.94;5059063;28;20192;-76
2024/03/13 00:23:38;;;;;;;3.20;2.77;;;;;;;6.33;93.19;95373.31;5059449;28;20945;-76
2024/03/13 00:26:03;;;;;;;2.77;2.50;;;;;;;6.37;93.75;95372.97;5058901;28;20235;-76
2024/03/13 00:28:29;;;;;;;3.67;2.80;;;;;;;6.28;93.28;95375.47;5093747;28;20646;-75
2024/03/13 00:30:54;;;;;;;3.10;2.53;;;;;;;6.36;92.66;95381.66;5094001;28;20184;-77
2024/03/13 00:33:19;;;;;;;3.50;2.40;;;;;;;6.35;93.06;95380.00;5080977;28;20180;-76
2024/03/13 00:35:45;;;;;;;2.67;2.27;;;;;;;6.14;93.36;95380.00;5087806;28;20213;-76
2024/03/13 00:38:11;;;;;;;4.27;2.30;;;;;;;6.18;94.15;95380.53;5069793;28;20226;-76
2024/03/13 00:40:37;;;;;;;3.70;2.40;;;;;;;6.29;93.32;95382.28;5071521;28;20276;-75
2024/03/13 00:43:02;;;;;;;2.43;2.10;;;;;;;6.37;93.17;95369.56;5088012;28;20712;-76
2024/03/13 00:45:28;;;;;;;2.70;2.10;;;;;;;6.25;93.77;95381.69;5101145;28;20204;-77
2024/03/13 00:47:54;;;;;;;3.10;2.60;;;;;;;6.43;92.32;95387.09;5085624;28;20202;-75
2024/03/13 00:50:19;;;;;;;3.87;2.53;;;;;;;6.34;93.07;95380.94;5083284;28;20211;-76
2024/03/13 00:52:45;;;;;;;2.50;2.10;;;;;;;6.49;92.31;95386.59;5065855;28;20211;-76
2024/03/13 00:55:10;;;;;;;3.17;2.50;;;;;;;6.33;92.48;95387.03;5086739;28;20187;-76
2024/03/13 00:57:36;;;;;;;3.60;2.40;;;;;;;6.53;92.48;95391.38;5084663;28;20654;-77
2024/03/13 01:00:04;;;;;;;2.60;2.40;;;;;;;6.31;93.37;95390.69;5092276;28;20185;-77
2024/03/13 01:02:30;;;;;;;4.03;2.33;;;;;;;6.36;93.52;95381.66;5074835;28;20204;-77
2024/03/13 01:04:55;;;;;;;3.30;2.53;;;;;;;6.42;92.82;95383.72;5070826;28;20293;-76
2024/03/13 01:07:22;;;;;;;4.03;2.50;;;;;;;6.41;93.24;95379.50;5074928;28;20289;-77
2024/03/13 01:09:47;;;;;;;2.30;2.10;;;;;;;6.37;92.60;95385.03;5074861;28;20180;-77
2024/03/13 01:12:13;;;;;;;2.70;2.10;;;;;;;6.50;92.80;95380.50;5056097;28;20199;-77
2024/03/13 01:14:39;;;;;;;2.87;2.50;;;;;;;6.53;92.13;95388.78;5073513;28;20184;-77
2024/03/13 01:17:04;;;;;;;2.23;2.03;;;;;;;6.56;91.50;95389.50;5058384;28;20211;-77
2024/03/13 01:19:34;;;;;;;2.93;2.33;;;;;;;6.35;92.59;95386.91;5069950;28;20672;-77
2024/03/13 01:22:07;;;;;;;2.17;1.97;;;;;;;6.44;92.72;95378.41;5072664;28;20230;-77
2024/03/13 01:24:33;;;;;;;2.10;1.90;;;;;;;6.27;93.53;95386.72;5073403;28;20190;-77
2024/03/13 01:26:59;;;;;;;1.87;1.70;;;;;;;6.32;93.76;95389.75;5075218;28;20199;-77
2024/03/13 01:29:25;;;;;;;3.10;1.90;;;;;;;6.60;92.54;95386.53;5056164;28;20660;-77
2024/03/13 01:31:50;;;;;;;2.80;1.93;;;;;;;6.57;92.40;95368.72;5072174;28;20587;-77
2024/03/13 01:34:16;;;;;;;1.80;1.60;;;;;;;6.52;92.15;95369.09;5074306;28;20180;-76
2024/03/13 01:39:26;;;;;;;2.10;1.70;;;;;;;6.46;92.85;95363.66;5075021;28;20255;-77
2024/03/13 01:55:36;;;;;;;2.50;1.60;;;;;;;6.67;91.98;95376.53;5072567;28;20334;-77
2024/03/13 02:03:16;;;;;;;1.93;1.83;;;;;;;6.50;92.73;95391.63;5074604;28;20192;-77
2024/03/13 02:05:45;;;;;;;2.97;1.67;;;;;;;6.61;92.03;95395.09;5057289;28;20212;-77
2024/03/13 02:08:14;;;;;;;2.27;1.90;;;;;;;6.61;92.35;95395.09;5056886;28;20211;-76
2024/03/13 02:10:39;;;;;;;2.40;2.20;;;;;;;6.53;92.91;95393.94;5065695;28;20187;-77
2024/03/13 02:13:10;;;;;;;2.77;2.23;;;;;;;6.50;93.27;95386.47;5073073;28;20184;-77
2024/03/13 02:15:40;;;;;;;3.23;2.17;;;;;;;6.58;92.83;95387.59;5070315;28;20267;-77
2024/03/13 02:18:28;;;;;;;2.30;2.10;;;;;;;6.60;92.83;95390.88;5055746;28;20275;-77
2024/03/13 02:20:58;;;;;;;2.37;2.17;;;;;;;6.51;93.63;95389.88;5072968;28;20184;-77
2024/03/13 02:23:24;;;;;;;2.20;2.00;;;;;;;6.55;93.25;95375.78;5070464;28;20191;-76
2024/03/13 02:25:53;;;;;;;2.00;1.80;;;;;;;6.60;92.85;95377.97;5054331;28;20712;-77
2024/03/13 02:28:29;;;;;;;2.70;1.90;;;;;;;6.59;93.43;95373.75;5072856;28;20180;-76
2024/03/13 02:30:55;;;;;;;3.10;2.10;;;;;;;6.47;93.70;95376.41;5072887;28;20707;-75
2024/03/13 02:33:20;;;;;;;2.30;2.10;;;;;;;6.59;93.47;95372.00;5088007;28;20199;-76
2024/03/13 02:35:45;;;;;;;2.30;2.10;;;;;;;6.61;92.88;95371.88;5073210;28;20204;-76
2024/03/13 02:38:11;;;;;;;2.83;2.10;;;;;;;6.61;93.22;95377.03;5090847;28;20644;-75
2024/03/13 02:40:36;;;;;;;3.73;2.57;;;;;;;6.67;93.50;95371.38;5071099;28;20184;-76
2024/03/13 02:43:02;;;;;;;2.47;2.23;;;;;;;6.61;93.33;95366.69;5072736;28;20553;-77
2024/03/13 02:45:27;;;;;;;3.20;2.50;;;;;;;6.72;93.24;95353.75;5055139;28;20593;-77
2024/03/13 02:47:53;;;;;;;2.93;2.40;;;;;;;6.75;92.28;95349.13;5074103;28;20241;-79
2024/03/13 02:50:19;;;;;;;2.30;2.10;;;;;;;6.71;93.47;95350.31;5072554;28;20670;-76
2024/03/13 02:52:44;;;;;;;2.77;2.30;;;;;;;6.70;92.88;95355.63;5091572;28;20265;-76
2024/03/13 02:55:13;;;;;;;3.07;2.53;;;;;;;6.75;93.21;95348.31;5076694;28;20188;-77
2024/03/13 02:57:39;;;;;;;4.97;2.80;;;;;;;6.77;92.84;95352.41;5097087;28;20183;-77
2024/03/13 03:00:06;;;;;;;2.70;2.30;;;;;;;6.75;93.27;95363.81;5063161;28;20180;-77
2024/03/13 03:02:39;;;;;;;3.83;2.50;;;;;;;6.76;92.31;95355.09;5063712;28;20191;-77
2024/03/13 03:05:05;;;;;;;2.60;2.40;;;;;;;6.56;93.65;95356.78;5075856;28;20217;-78
2024/03/13 03:07:34;;;;;;;2.93;2.47;;;;;;;6.64;93.29;95361.31;5079461;28;20206;-77
2024/03/13 03:10:00;;;;;;;3.00;2.40;;;;;;;6.68;93.34;95358.31;5081266;28;20185;-77
2024/03/13 03:12:26;;;;;;;3.00;2.30;;;;;;;6.74;93.35;95357.00;5079597;28;20575;-77
2024/03/13 03:14:54;;;;;;;2.23;2.03;;;;;;;6.67;93.26;95359.28;5065310;28;20191;-76
2024/03/13 03:17:21;;;;;;;3.63;2.57;;;;;;;6.58;93.78;95369.56;5082725;28;20204;-77
2024/03/13 03:19:49;;;;;;;2.83;2.30;;;;;;;6.66;94.21;95360.22;5101804;28;20203;-77
2024/03/13 03:22:15;;;;;;;2.37;2.17;;;;;;;6.67;93.36;95366.19;5084140;28;20176;-77
2024/03/13 03:24:40;;;;;;;2.50;2.17;;;;;;;6.79;92.86;95365.16;5083059;28;20208;-77
2024/03/13 03:27:05;;;;;;;2.50;2.30;;;;;;;6.75;92.99;95363.81;5084944;28;20204;-76
2024/03/13 03:29:31;;;;;;;2.67;2.40;;;;;;;6.82;92.78;95357.19;5061950;28;20193;-76
2024/03/13 03:31:56;;;;;;;2.50;2.17;;;;;;;6.76;93.26;95362.84;5067774;28;20268;-77
2024/03/13 03:34:23;;;;;;;2.53;2.10;;;;;;;6.81;93.01;95358.13;5067244;28;20188;-76
2024/03/13 03:36:48;;;;;;;1.90;1.73;;;;;;;6.75;93.19;95369.78;5083123;28;20200;-76
2024/03/13 03:39:17;;;;;;;2.23;1.90;;;;;;;6.77;93.13;95361.91;5066887;28;20180;-77
2024/03/13 03:41:42;;;;;;;3.17;2.20;;;;;;;6.76;93.32;95366.25;5084900;28;20184;-77
2024/03/13 03:44:11;;;;;;;2.00;1.80;;;;;;;6.72;93.66;95369.22;5101447;28;20283;-77
2024/03/13 03:46:42;;;;;;;2.20;2.00;;;;;;;6.81;93.15;95369.28;5066006;28;20279;-76
2024/03/13 03:49:08;;;;;;;2.03;1.83;;;;;;;6.77;93.76;95369.66;5082468;28;20280;-76
2024/03/13 03:51:33;;;;;;;2.43;2.20;;;;;;;6.76;94.06;95371.41;5067301;28;20731;-77
2024/03/13 03:53:59;;;;;;;1.97;1.70;;;;;;;6.73;93.41;95370.84;5083601;28;20185;-77
2024/03/13 03:56:26;;;;;;;1.90;1.70;;;;;;;6.80;93.02;95369.38;5083288;28;20222;-77
2024/03/13 03:58:54;;;;;;;2.60;2.00;;;;;;;6.76;92.99;95366.25;5079800;28;20853;-77
2024/03/13 04:01:24;;;;;;;2.17;1.97;;;;;;;6.71;94.40;95367.56;5083717;28;20246;-77
2024/03/13 04:03:50;;;;;;;2.57;2.37;;;;;;;6.75;93.82;95363.81;5050357;28;20192;-78
2024/03/13 04:06:18;;;;;;;2.30;2.10;;;;;;;6.85;93.50;95369.00;5062503;28;20226;-77
2024/03/13 04:08:44;;;;;;;2.60;2.00;;;;;;;6.85;93.32;95369.00;5066848;28;20226;-77
2024/03/13 04:11:11;;;;;;;2.40;2.20;;;;;;;6.81;94.13;95363.28;5066959;28;20275;-77
2024/03/13 04:13:37;;;;;;;2.07;1.87;;;;;;;6.76;94.72;95363.66;5077134;28;20261;-77
2024/03/13 04:16:04;;;;;;;1.80;1.67;;;;;;;6.86;93.39;95370.63;5101363;28;20570;-77
2024/03/13 04:18:30;;;;;;;1.97;1.77;;;;;;;6.88;93.37;95369.56;5066957;28;20815;-77
2024/03/13 04:20:56;;;;;;;2.20;1.80;;;;;;;6.90;93.03;95372.84;5062055;28;20192;-77
2024/03/13 04:23:21;;;;;;;2.20;1.90;;;;;;;6.78;94.36;95366.94;5064157;28;20680;-77
2024/03/13 04:25:47;;;;;;;2.03;1.83;;;;;;;6.82;94.19;95370.09;5099692;28;20290;-76
2024/03/13 04:28:12;;;;;;;2.73;1.73;;;;;;;6.68;94.79;95368.66;5065518;28;20666;-77
2024/03/13 04:30:40;;;;;;;2.77;2.40;;;;;;;6.77;94.69;95367.06;5082113;28;20268;-77
2024/03/13 04:33:06;;;;;;;1.70;1.60;;;;;;;6.86;94.41;95368.88;5065211;28;20539;-77
2024/03/13 04:35:31;;;;;;;2.40;2.10;;;;;;;6.89;94.39;95367.78;5058890;28;20275;-77
2024/03/13 04:37:57;;;;;;;2.93;2.50;;;;;;;6.88;94.42;95376.47;5081037;28;20200;-77
2024/03/13 04:40:22;;;;;;;2.53;2.33;;;;;;;6.99;93.89;95372.06;5079946;28;20192;-77
2024/03/13 04:42:48;;;;;;;2.03;1.87;;;;;;;6.91;94.18;95371.91;5065542;28;20193;-77
2024/03/13 04:45:13;;;;;;;2.47;2.10;;;;;;;6.93;94.60;95382.09;5062151;28;20676;-77
2024/03/13 04:47:39;;;;;;;2.50;2.30;;;;;;;6.88;93.68;95381.63;5063659;28;20195;-76
2024/03/13 04:50:05;;;;;;;2.40;2.00;;;;;;;7.05;94.00;95383.63;5063224;28;20181;-77
2024/03/13 04:52:31;;;;;;;3.57;3.00;;;;;;;7.01;94.44;95384.84;5065286;28;20188;-77
2024/03/13 04:54:56;;;;;;;4.30;3.90;;;;;;;6.84;94.97;95383.69;5066218;28;20676;-77
2024/03/13 04:57:22;;;;;;;4.73;4.30;;;;;;;6.94;93.87;95394.84;5065193;28;20204;-76
2024/03/13 04:59:48;;;;;;;6.73;6.03;;;;;;;6.98;94.06;95390.25;5081240;28;20702;-75
2024/03/13 05:02:14;;;;;;;11.07;9.87;;;;;;;6.94;94.40;95394.03;5100074;28;20275;-77
2024/03/13 05:04:42;;;;;;;18.67;16.63;;;;;;;6.98;94.87;95398.00;5077883;28;20210;-77
2024/03/13 05:07:09;;;;;;;9.27;7.97;;;;;;;7.08;94.40;95404.03;5063662;28;20239;-76
2024/03/13 05:09:35;;;;;;;5.17;4.30;;;;;;;6.99;94.63;95403.03;5081106;28;20862;-77
2024/03/13 05:12:03;;;;;;;4.40;3.70;;;;;;;7.08;94.32;95401.44;5064586;28;20208;-77
2024/03/13 05:14:29;;;;;;;3.00;2.70;;;;;;;6.94;94.82;95406.94;5064506;28;20250;-77
2024/03/13 05:16:55;;;;;;;5.07;3.07;;;;;;;6.99;94.81;95408.22;5081687;28;20208;-77
2024/03/13 05:19:20;;;;;;;3.87;2.90;;;;;;;6.94;94.89;95409.53;5081531;28;20680;-77
2024/03/13 05:21:46;;;;;;;3.10;2.80;;;;;;;6.96;94.78;95416.19;5078241;28;20264;-77
2024/03/13 05:24:13;;;;;;;9.97;3.00;;;;;;;6.99;94.20;95413.38;5079096;28;20606;-77
2024/03/13 05:26:38;;;;;;;4.20;2.43;;;;;;;6.90;95.05;95419.31;5070001;28;20269;-77
2024/03/13 05:29:04;;;;;;;4.23;2.80;;;;;;;6.97;93.86;95427.34;5063664;28;20184;-77
2024/03/13 05:31:29;;;;;;;3.27;2.97;;;;;;;6.95;94.96;95429.22;5099039;28;20210;-77
2024/03/13 05:33:55;;;;;;;3.10;2.80;;;;;;;7.01;94.04;95424.38;5066298;28;20192;-77
2024/03/13 05:36:20;;;;;;;3.83;3.03;;;;;;;6.95;95.36;95432.63;5059062;28;20286;-76
2024/03/13 05:38:45;;;;;;;14.90;3.17;;;;;;;6.91;95.02;95426.09;5071918;28;20676;-77
2024/03/13 05:41:11;;;;;;;36.43;4.17;;;;;;;6.98;94.52;95429.81;5068735;28;20226;-77
2024/03/13 05:43:36;;;;;;;5.23;2.70;;;;;;;6.96;95.14;95433.44;5072668;28;20546;-77
2024/03/13 05:46:02;;;;;;;21.73;3.40;;;;;;;6.96;94.32;95434.25;5069092;28;20287;-77
2024/03/13 05:48:27;;;;;;;6.27;3.13;;;;;;;6.94;95.09;95438.75;5089616;28;20188;-77
2024/03/13 05:50:53;;;;;;;3.53;2.70;;;;;;;6.94;95.18;95441.31;5054110;28;20195;-77
2024/03/13 05:53:20;;;;;;;15.70;2.50;;;;;;;6.90;94.63;95434.81;5071551;28;20210;-76
2024/03/13 05:55:45;;;;;;;7.67;2.70;;;;;;;6.97;93.90;95437.66;5072984;28;20249;-77
2024/03/13 05:58:11;;;;;;;2.93;2.63;;;;;;;6.98;94.82;95437.56;5072865;28;20184;-77
2024/03/13 06:00:41;;;;;;;4.17;2.83;;;;;;;7.02;94.62;95443.28;5057848;28;20184;-76
2024/03/13 06:03:06;;;;;;;3.13;2.80;;;;;;;7.09;94.67;95437.47;5070365;28;20656;-75
2024/03/13 06:05:31;;;;;;;2.70;2.40;;;;;;;7.03;95.19;95450.06;5088163;28;20654;-76
2024/03/13 06:07:58;;;;;;;2.93;2.50;;;;;;;7.12;94.42;95451.06;5074134;28;20195;-76
2024/03/13 06:10:24;;;;;;;2.80;2.30;;;;;;;7.16;94.48;95448.13;5068206;28;20184;-75
2024/03/13 06:12:50;;;;;;;2.60;2.23;;;;;;;7.21;94.60;95458.03;5068524;28;20187;-76
2024/03/13 06:15:15;;;;;;;4.33;3.13;;;;;;;7.18;94.93;95458.31;5067356;28;20271;-76
2024/03/13 06:17:41;;;;;;;3.63;3.20;;;;;;;7.32;94.73;95460.53;5090491;28;20758;-75
2024/03/13 06:20:12;;;;;;;3.60;3.30;;;;;;;7.33;94.35;95467.31;5090302;28;20192;-76
2024/03/13 06:22:41;;;;;;;3.57;3.27;;;;;;;7.34;94.07;95469.00;5069794;28;20180;-76
2024/03/13 06:25:07;;;;;;;3.60;3.30;;;;;;;7.42;94.49;95468.31;5085420;28;20206;-79
2024/03/13 06:27:36;;;;;;;3.20;2.90;;;;;;;7.45;94.75;95462.91;5063993;28;20267;-75
2024/03/13 06:30:02;;;;;;;4.27;3.57;;;;;;;7.50;94.86;95458.97;5067924;28;20184;-76
2024/03/13 06:32:31;;;;;;;4.57;3.83;;;;;;;7.58;95.65;95461.72;5069664;28;20192;-76
2024/03/13 06:34:57;;;;;;;5.10;3.10;;;;;;;7.67;95.48;95470.44;5051602;28;20172;-76
2024/03/13 06:37:25;;;;;;;2.37;2.07;;;;;;;7.77;96.66;95470.47;5087708;28;20227;-76
2024/03/13 06:39:52;;;;;;;2.07;1.87;;;;;;;7.89;96.31;95475.41;5069266;28;20295;-76
2024/03/13 06:42:18;;;;;;;1.70;1.60;;;;;;;8.02;96.30;95469.16;5071683;28;20263;-76
2024/03/13 06:44:44;;;;;;;2.27;2.07;;;;;;;8.12;96.22;95464.81;5069590;28;20288;-76
2024/03/13 06:47:11;;;;;;;2.60;2.23;;;;;;;8.22;96.52;95473.44;5070813;28;20236;-75
2024/03/13 06:49:44;;;;;;;3.33;3.00;;;;;;;8.30;96.08;95470.16;5070032;28;20180;-76
2024/03/13 06:52:12;;;;;;;2.07;1.73;;;;;;;8.38;96.84;95475.50;5076059;28;20176;-76
2024/03/13 06:54:41;;;;;;;2.17;1.40;;;;;;;8.47;97.18;95477.25;5075075;28;20180;-76
2024/03/13 06:57:09;;;;;;;1.37;0.93;;;;;;;8.49;97.60;95472.78;5091977;28;20204;-76
2024/03/13 06:59:35;;;;;;;2.03;1.03;;;;;;;8.67;96.72;95476.31;5056431;28;20276;-76
2024/03/13 07:02:01;;;;;;;2.03;1.83;;;;;;;8.73;96.97;95482.69;5070578;28;20272;-76
2024/03/13 07:04:26;;;;;;;1.53;1.43;;;;;;;8.80;96.89;95484.59;5073367;28;20179;-76
2024/03/13 07:06:57;;;;;;;4.73;2.57;;;;;;;8.86;96.74;95482.44;5075703;28;20736;-76
2024/03/13 07:09:26;;;;;;;34.63;20.87;;;;;;;8.91;96.53;95485.41;5073676;28;20185;-76
2024/03/13 07:11:51;;;;;;;42.53;25.47;;;;;;;8.96;97.01;95494.41;5055180;28;20267;-76
2024/03/13 07:14:17;;;;;;;34.97;20.47;;;;;;;8.94;97.09;95490.34;5070590;28;20291;-76
2024/03/13 07:16:43;;;;;;;21.10;13.00;;;;;;;9.04;96.66;95494.53;5074338;28;20342;-76
2024/03/13 07:19:09;;;;;;;5.33;3.83;;;;;;;9.00;97.18;95492.34;5056737;28;20267;-79
2024/03/13 07:21:35;;;;;;;2.43;2.20;;;;;;;9.10;96.72;95493.16;5071688;28;20188;-77
2024/03/13 07:24:01;;;;;;;2.17;2.00;;;;;;;9.15;96.98;95492.72;5093283;28;20557;-76
2024/03/13 07:26:26;;;;;;;1.30;1.13;;;;;;;9.15;97.01;95503.91;5071389;28;20237;-76
2024/03/13 07:28:53;;;;;;;1.00;0.90;;;;;;;9.26;96.82;95503.75;5066784;28;20205;-75
2024/03/13 07:31:20;;;;;;;0.93;0.83;;;;;;;9.33;97.05;95499.63;5077283;28;20200;-77
2024/03/13 07:33:45;;;;;;;0.97;0.80;;;;;;;9.39;96.70;95507.81;5080979;28;20597;-78
2024/03/13 07:36:11;;;;;;;1.10;0.80;;;;;;;9.44;96.14;95503.00;5079196;28;20299;-76
2024/03/13 07:38:37;;;;;;;1.20;1.10;;;;;;;9.53;96.55;95505.56;5070893;28;20207;-77
2024/03/13 07:41:09;;;;;;;0.80;0.80;;;;;;;9.63;96.78;95502.97;5055327;28;20589;-77
2024/03/13 07:43:34;;;;;;;1.50;1.40;;;;;;;9.63;96.54;95510.75;5092061;28;20235;-74
2024/03/13 07:46:00;;;;;;;1.30;1.10;;;;;;;9.56;97.60;95509.66;5069149;28;20286;-76
2024/03/13 07:48:26;;;;;;;0.63;0.63;;;;;;;9.61;97.35;95513.44;5070666;28;20558;-77
2024/03/13 07:50:52;;;;;;;0.90;0.80;;;;;;;9.59;98.25;95509.38;5060230;28;20184;-76
2024/03/13 07:53:17;;;;;;;5.30;3.93;;;;;;;9.77;97.20;95512.03;5091163;28;20638;-77
2024/03/13 07:55:42;;;;;;;9.07;5.93;;;;;;;9.78;96.74;95514.47;5093656;28;20200;-77
2024/03/13 07:58:18;;;;;;;10.47;7.07;;;;;;;9.91;96.55;95520.16;5093212;28;20180;-76
2024/03/13 08:00:43;;;;;;;2.60;2.33;;;;;;;9.96;96.62;95518.91;5089960;28;20264;-77
2024/03/13 08:03:09;;;;;;;1.40;1.30;;;;;;;9.96;96.31;95526.69;5073390;28;20259;-77
2024/03/13 08:05:34;;;;;;;1.00;0.90;;;;;;;10.01;95.93;95529.69;5074354;28;20235;-77
2024/03/13 08:08:00;;;;;;;0.67;0.60;;;;;;;10.08;95.86;95525.53;5075949;28;20184;-77
2024/03/13 08:10:25;;;;;;;0.77;0.60;;;;;;;10.09;96.06;95522.00;5073045;28;20180;-77
2024/03/13 08:12:56;;;;;;;0.70;0.70;;;;;;;10.09;96.28;95528.00;5093371;28;20184;-78
2024/03/13 08:15:22;;;;;;;1.00;1.00;;;;;;;10.25;95.56;95531.75;5073426;28;20196;-77
2024/03/13 08:17:47;;;;;;;0.70;0.70;;;;;;;10.21;95.78;95534.59;5069849;28;20331;-77
2024/03/13 08:20:14;;;;;;;8.07;5.73;;;;;;;10.23;95.53;95539.69;5074280;28;20606;-77
2024/03/13 08:22:42;;;;;;;13.80;9.20;;;;;;;10.50;95.83;95542.22;5095645;28;20192;-77
2024/03/13 08:25:08;;;;;;;1.63;1.37;;;;;;;10.44;95.11;95535.06;5094167;28;20661;-77
2024/03/13 08:27:33;;;;;;;1.33;0.67;;;;;;;10.53;94.92;95545.53;5093724;28;20218;-77
2024/03/13 08:29:59;;;;;;;0.73;0.73;;;;;;;10.63;95.14;95548.88;5079197;28;20188;-76
2024/03/13 08:32:24;;;;;;;0.60;0.60;;;;;;;10.78;95.01;95550.00;5095739;28;20628;-77
2024/03/13 08:34:50;;;;;;;0.67;0.60;;;;;;;10.88;94.41;95550.72;5076978;28;20184;-77
2024/03/13 08:37:16;;;;;;;0.30;0.30;;;;;;;10.67;94.22;95552.78;5076797;28;20665;-77
2024/03/13 08:39:41;;;;;;;1.50;0.50;;;;;;;10.63;94.20;95551.47;5075817;28;20229;-77
2024/03/13 08:42:06;;;;;;;0.40;0.40;;;;;;;10.88;94.06;95555.09;5078118;28;20585;-77
2024/03/13 08:44:32;;;;;;;0.50;0.30;;;;;;;11.00;93.73;95559.09;5095196;28;20277;-77
2024/03/13 08:46:57;;;;;;;1.40;0.30;;;;;;;10.85;92.73;95561.38;5076228;28;20262;-77
2024/03/13 08:49:24;;;;;;;3.70;2.50;;;;;;;10.92;93.19;95567.63;5061264;28;20184;-77
2024/03/13 08:51:50;;;;;;;1.50;0.83;;;;;;;10.94;92.80;95568.28;5077341;28;20185;-77
2024/03/13 08:54:16;;;;;;;0.60;0.60;;;;;;;11.03;92.79;95570.00;5078015;28;20183;-77
2024/03/13 08:56:42;;;;;;;3.50;3.30;;;;;;;10.90;92.77;95576.56;5061062;28;20215;-77
2024/03/13 08:59:07;;;;;;;1.00;1.00;;;;;;;10.94;92.84;95578.69;5077171;28;20184;-77
2024/03/13 09:01:40;;;;;;;0.80;0.80;;;;;;;11.12;92.81;95577.84;5076458;28;20267;-77
2024/03/13 09:04:06;;;;;;;0.40;0.40;;;;;;;11.04;92.83;95589.84;5074568;28;20263;-77
2024/03/13 09:06:32;;;;;;;1.23;0.50;;;;;;;11.26;91.98;95585.13;5078179;28;20267;-77
2024/03/13 09:08:58;;;;;;;0.50;0.50;;;;;;;11.25;91.90;95589.53;5096903;28;20208;-77
2024/03/13 09:11:23;;;;;;;0.50;0.50;;;;;;;11.30;91.91;95596.84;5075794;28;20218;-77
2024/03/13 09:13:48;;;;;;;0.70;0.70;;;;;;;11.30;91.37;95595.06;5092953;28;20212;-77
2024/03/13 09:16:17;;;;;;;0.50;0.50;;;;;;;11.54;91.31;95604.84;5060604;28;20232;-77
2024/03/13 09:18:42;;;;;;;1.10;0.47;;;;;;;11.59;91.17;95601.78;5076643;28;20192;-77
2024/03/13 09:21:07;;;;;;;0.40;0.40;;;;;;;11.35;91.38;95598.03;5061078;28;20622;-76
2024/03/13 09:23:33;;;;;;;0.40;0.40;;;;;;;11.66;90.44;95601.97;5091834;28;20267;-77
2024/03/13 09:25:59;;;;;;;0.57;0.43;;;;;;;11.70;89.83;95604.13;5075366;28;20232;-77
2024/03/13 09:28:24;;;;;;;0.37;0.37;;;;;;;11.84;89.71;95606.22;5077749;28;20180;-77
2024/03/13 09:30:49;;;;;;;0.30;0.30;;;;;;;11.98;89.26;95606.59;5060434;28;20207;-77
2024/03/13 09:33:15;;;;;;;0.40;0.40;;;;;;;11.99;89.15;95605.63;5074398;28;20673;-77
2024/03/13 09:35:40;;;;;;;0.40;0.40;;;;;;;11.87;89.58;95613.72;5093833;28;20685;-77
2024/03/13 09:38:06;;;;;;;0.50;0.50;;;;;;;11.86;89.58;95608.66;5077408;28;20223;-77
2024/03/13 09:40:31;;;;;;;0.43;0.43;;;;;;;11.91;88.42;95606.41;5074007;28;20555;-77
2024/03/13 09:43:00;;;;;;;0.40;0.40;;;;;;;12.00;88.42;95605.47;5074821;28;20224;-77
2024/03/13 09:45:26;;;;;;;0.40;0.40;;;;;;;12.24;88.08;95609.19;5060614;28;20291;-76
2024/03/13 09:47:52;;;;;;;0.23;0.23;;;;;;;12.46;87.06;95606.03;5060016;28;20208;-76
2024/03/13 09:50:20;;;;;;;0.73;0.33;;;;;;;12.67;86.95;95606.41;5060150;28;20772;-77
2024/03/13 09:52:48;;;;;;;0.40;0.40;;;;;;;12.88;86.14;95615.56;5057112;28;20192;-77
2024/03/13 09:55:18;;;;;;;0.30;0.30;;;;;;;13.04;84.60;95615.59;5076596;28;20216;-76
2024/03/13 09:57:44;;;;;;;0.30;0.30;;;;;;;12.80;84.10;95618.16;5094063;28;20265;-77
2024/03/13 10:00:14;;;;;;;0.30;0.30;;;;;;;12.51;85.44;95621.16;5074907;28;20188;-76
2024/03/13 10:02:42;;;;;;;0.30;0.30;;;;;;;12.62;84.33;95619.06;5095114;28;20275;-76
2024/03/13 10:05:11;;;;;;;0.20;0.20;;;;;;;13.11;82.69;95621.78;5078037;28;20753;-77
2024/03/13 10:07:37;;;;;;;0.33;0.30;;;;;;;13.17;81.56;95620.34;5097644;28;20184;-77
2024/03/13 10:10:18;;;;;;;0.20;0.20;;;;;;;13.28;82.53;95627.88;5059687;28;20657;-77
2024/03/13 10:12:43;;;;;;;0.30;0.30;;;;;;;13.10;82.87;95635.81;5075543;28;20207;-77
2024/03/13 10:15:10;;;;;;;0.30;0.30;;;;;;;13.14;82.07;95629.28;5060115;28;20602;-77
2024/03/13 10:17:36;;;;;;;0.20;0.20;;;;;;;13.17;82.13;95620.34;5059299;28;20702;-77
2024/03/13 10:20:08;;;;;;;0.53;0.30;;;;;;;13.51;81.49;95636.66;5062236;28;20180;-77
2024/03/13 10:22:34;;;;;;;0.30;0.30;;;;;;;13.57;81.56;95638.63;5078900;28;20262;-77
2024/03/13 10:25:00;;;;;;;0.23;0.23;;;;;;;13.65;80.88;95634.41;5079773;28;20208;-77
2024/03/13 10:27:26;;;;;;;0.40;0.40;;;;;;;13.69;81.02;95643.50;5071821;28;20204;-77
2024/03/13 10:29:53;;;;;;;0.33;0.33;;;;;;;13.75;80.09;95645.47;5067973;28;20269;-77
2024/03/13 10:32:19;;;;;;;0.50;0.50;;;;;;;13.36;80.95;95643.53;5057548;28;20186;-77
2024/03/13 10:34:45;;;;;;;0.90;0.90;;;;;;;13.26;82.06;95646.31;5068595;28;20181;-76
2024/03/13 10:37:12;;;;;;;0.50;0.40;;;;;;;13.15;81.80;95648.34;5051240;28;20266;-77
2024/03/13 10:39:38;;;;;;;0.37;0.37;;;;;;;13.22;82.35;95644.16;5066660;28;20457;-77
2024/03/13 10:42:07;;;;;;;0.40;0.40;;;;;;;13.10;82.25;95650.66;5068771;28;20226;-77
2024/03/13 10:44:33;;;;;;;0.77;0.60;;;;;;;13.02;83.13;95648.84;5089693;28;20207;-77
2024/03/13 10:47:00;;;;;;;3.30;3.00;;;;;;;12.58;84.83;95651.63;5063105;28;20212;-76
2024/03/13 10:49:27;;;;;;;1.50;1.40;;;;;;;12.52;83.94;95651.44;5064326;28;20231;-77
2024/03/13 10:51:57;;;;;;;0.93;0.50;;;;;;;12.57;84.88;95657.81;5073979;28;20210;-77
2024/03/13 10:54:23;;;;;;;0.47;0.40;;;;;;;12.71;84.82;95656.38;5063535;28;20545;-77
2024/03/13 10:56:52;;;;;;;1.07;1.07;;;;;;;12.42;86.14;95656.78;5077906;28;20204;-77
2024/03/13 10:59:19;;;;;;;1.13;1.13;;;;;;;12.56;85.78;95658.81;5056858;28;20223;-78
2024/03/13 11:01:47;;;;;;;0.50;0.50;;;;;;;12.52;85.94;95656.66;5078987;28;20196;-77
2024/03/13 11:04:14;;;;;;;1.00;1.00;;;;;;;12.55;86.06;95658.97;5061444;28;20189;-76
2024/03/13 11:06:40;;;;;;;0.50;0.50;;;;;;;12.46;86.26;95655.50;5077789;28;20723;-77
2024/03/13 11:09:16;;;;;;;0.37;0.37;;;;;;;12.34;86.76;95654.94;5077788;28;20181;-77
2024/03/13 11:11:41;;;;;;;0.50;0.50;;;;;;;12.58;86.06;95662.06;5065445;28;20191;-76
2024/03/13 11:14:07;;;;;;;1.37;1.00;;;;;;;12.49;86.61;95657.78;5064277;28;20220;-77
2024/03/13 11:16:34;;;;;;;2.07;1.60;;;;;;;12.45;87.52;95656.44;5065335;28;20803;-77
2024/03/13 11:19:01;;;;;;;10.47;6.50;;;;;;;12.51;87.06;95655.84;5073476;28;20189;-77
2024/03/13 11:21:59;;;;;;;2.63;1.50;;;;;;;12.71;86.34;95654.59;5062733;28;20180;-77
2024/03/13 11:24:25;;;;;;;4.30;2.57;;;;;;;12.48;85.91;95650.94;5037530;28;20238;-77
2024/03/13 11:27:01;;;;;;;1.83;1.40;;;;;;;12.85;85.39;95658.41;5002848;28;20206;-77
2024/03/13 11:29:33;;;;;;;0.67;0.63;;;;;;;12.53;86.60;95656.50;5001876;28;20190;-77
2024/03/13 11:31:59;;;;;;;2.70;2.60;;;;;;;12.52;86.14;95662.69;5000591;28;20179;-77
2024/03/13 11:34:24;;;;;;;2.43;2.27;;;;;;;12.50;86.97;95661.22;5015603;28;20556;-77
2024/03/13 11:36:50;;;;;;;2.73;2.47;;;;;;;12.65;86.25;95659.66;5032639;28;20214;-77
2024/03/13 11:39:15;;;;;;;1.43;1.33;;;;;;;12.50;86.47;95661.22;5016142;28;20608;-77
2024/03/13 11:41:42;;;;;;;3.10;2.33;;;;;;;12.42;87.45;95662.78;5012079;28;21036;-77
2024/03/13 11:44:08;;;;;;;3.23;1.93;;;;;;;12.61;86.21;95656.53;4999077;28;20298;-76
2024/03/13 11:46:44;;;;;;;1.80;1.70;;;;;;;12.49;87.32;95652.56;5032787;28;20321;-77
2024/03/13 11:49:09;;;;;;;2.00;1.90;;;;;;;12.94;85.80;95656.63;5018975;28;20697;-77
2024/03/13 11:51:36;;;;;;;1.13;1.10;;;;;;;12.93;84.84;95657.63;5017518;28;20282;-77
2024/03/13 11:54:12;;;;;;;0.50;0.50;;;;;;;13.32;83.79;95656.06;5018719;28;20248;-77
2024/03/13 11:56:39;;;;;;;0.40;0.40;;;;;;;13.38;83.80;95649.41;5019544;28;20586;-79
2024/03/13 11:59:05;;;;;;;0.40;0.40;;;;;;;13.25;83.58;95646.44;5044315;28;20197;-77